createdAt,value
2019-05-23T00:01:05.267Z,9.71
2019-05-23T00:03:40.146Z,9.69
2019-05-23T00:06:11.306Z,9.68
2019-05-23T00:08:41.344Z,9.65
2019-05-23T00:11:32.427Z,9.64
2019-05-23T00:14:07.578Z,9.61
2019-05-23T00:16:38.599Z,9.60
2019-05-23T00:19:07.949Z,9.61
2019-05-23T00:21:39.241Z,9.61
2019-05-23T00:24:09.023Z,9.61
2019-05-23T00:26:39.577Z,9.61
2019-05-23T00:29:11.047Z,9.59
2019-05-23T00:31:54.116Z,9.54
2019-05-23T00:34:23.366Z,9.53
2019-05-23T00:36:54.701Z,9.47
2019-05-23T00:39:24.216Z,9.42
2019-05-23T00:41:54.356Z,9.35
2019-05-23T00:44:23.454Z,9.28
2019-05-23T00:46:53.924Z,9.23
2019-05-23T00:49:24.780Z,9.18
2019-05-23T00:51:54.644Z,9.14
2019-05-23T00:54:23.716Z,9.08
2019-05-23T00:56:52.980Z,9.06
2019-05-23T00:59:27.122Z,9.03
2019-05-23T01:01:53.711Z,9.02
2019-05-23T01:04:23.250Z,8.99
2019-05-23T01:06:54.014Z,8.98
2019-05-23T01:09:25.322Z,8.96
2019-05-23T01:11:54.502Z,8.93
2019-05-23T01:14:23.958Z,8.92
2019-05-23T01:16:53.614Z,8.93
2019-05-23T01:19:22.867Z,8.93
2019-05-23T01:22:03.020Z,8.93
2019-05-23T01:24:38.351Z,8.94
2019-05-23T01:27:08.580Z,8.95
2019-05-23T01:29:40.474Z,8.96
2019-05-23T01:32:19.212Z,8.99
2019-05-23T01:34:48.348Z,9.00
2019-05-23T01:37:18.394Z,9.02
2019-05-23T01:39:47.556Z,9.02
2019-05-23T01:42:17.513Z,9.04
2019-05-23T01:44:47.461Z,9.05
2019-05-23T01:47:16.879Z,9.05
2019-05-23T01:49:47.407Z,9.05
2019-05-23T01:52:17.870Z,9.06
2019-05-23T01:54:48.024Z,9.06
2019-05-23T01:57:17.922Z,9.06
2019-05-23T01:59:47.478Z,9.06
2019-05-23T02:02:18.257Z,9.05
2019-05-23T02:04:48.549Z,9.04
2019-05-23T02:07:18.229Z,9.05
2019-05-23T02:09:47.335Z,9.05
2019-05-23T02:12:17.892Z,9.03
2019-05-23T02:14:48.542Z,9.03
2019-05-23T02:17:18.422Z,9.02
2019-05-23T02:19:48.039Z,9.00
2019-05-23T02:22:17.210Z,9.00
2019-05-23T02:24:48.964Z,8.98
2019-05-23T02:27:20.496Z,8.98
2019-05-23T02:29:49.571Z,8.97
2019-05-23T02:32:20.584Z,8.95
2019-05-23T02:34:50.608Z,8.95
2019-05-23T02:37:47.509Z,8.93
2019-05-23T02:40:22.125Z,8.93
2019-05-23T02:43:00.723Z,8.92
2019-05-23T02:45:37.135Z,8.92
2019-05-23T02:48:11.465Z,8.89
2019-05-23T02:50:50.669Z,8.90
2019-05-23T02:53:23.864Z,8.86
2019-05-23T02:55:56.309Z,8.85
2019-05-23T02:58:31.651Z,8.82
2019-05-23T03:01:22.868Z,8.78
2019-05-23T03:03:54.811Z,8.76
2019-05-23T03:06:27.042Z,8.73
2019-05-23T03:08:57.224Z,8.71
2019-05-23T03:11:45.628Z,8.68
2019-05-23T03:14:15.511Z,8.65
2019-05-23T03:16:46.821Z,8.62
2019-05-23T03:19:37.046Z,8.58
2019-05-23T03:22:47.011Z,8.55
2019-05-23T03:25:54.682Z,8.52
2019-05-23T03:28:25.716Z,8.47
2019-05-23T03:31:25.690Z,8.45
2019-05-23T03:33:29.198Z,8.43
2019-05-23T03:35:59.418Z,8.40
2019-05-23T03:38:28.805Z,8.38
2019-05-23T03:40:58.065Z,8.36
2019-05-23T03:43:29.147Z,8.35
2019-05-23T03:46:03.059Z,8.33
2019-05-23T03:48:32.836Z,8.32
2019-05-23T03:51:02.897Z,8.30
2019-05-23T03:53:32.571Z,8.30
2019-05-23T03:56:01.954Z,8.30
2019-05-23T03:58:31.725Z,8.30
2019-05-23T04:01:02.446Z,8.30
2019-05-23T04:03:31.547Z,8.30
2019-05-23T04:06:00.905Z,8.29
2019-05-23T04:08:30.261Z,8.29
2019-05-23T04:11:00.529Z,8.30
2019-05-23T04:13:29.677Z,8.31
2019-05-23T04:15:58.976Z,8.31
2019-05-23T04:18:28.553Z,8.32
2019-05-23T04:20:57.642Z,8.32
2019-05-23T04:23:26.830Z,8.31
2019-05-23T04:25:55.986Z,8.33
2019-05-23T04:28:25.184Z,8.34
2019-05-23T04:30:54.222Z,8.35
2019-05-23T04:33:23.317Z,8.37
2019-05-23T04:35:52.383Z,8.38
2019-05-23T04:38:21.485Z,8.39
2019-05-23T04:40:50.561Z,8.41
2019-05-23T04:43:19.746Z,8.42
2019-05-23T04:45:48.905Z,8.45
2019-05-23T04:48:18.397Z,8.46
2019-05-23T04:50:47.768Z,8.46
2019-05-23T04:53:16.874Z,8.48
2019-05-23T04:55:47.453Z,8.50
2019-05-23T04:58:17.135Z,8.51
2019-05-23T05:00:46.455Z,8.53
2019-05-23T05:03:18.385Z,8.56
2019-05-23T05:05:46.968Z,8.59
2019-05-23T05:08:16.070Z,8.64
2019-05-23T05:10:47.410Z,8.69
2019-05-23T05:13:16.949Z,8.75
2019-05-23T05:15:46.096Z,8.80
2019-05-23T05:18:15.282Z,8.86
2019-05-23T05:20:44.587Z,8.93
2019-05-23T05:23:13.923Z,9.02
2019-05-23T05:25:43.180Z,9.06
2019-05-23T05:28:12.249Z,9.14
2019-05-23T05:30:41.456Z,9.22
2019-05-23T05:33:11.012Z,9.29
2019-05-23T05:35:40.488Z,9.36
2019-05-23T05:38:09.664Z,9.44
2019-05-23T05:40:39.630Z,9.51
2019-05-23T05:43:09.686Z,9.59
2019-05-23T05:45:38.785Z,9.65
2019-05-23T05:48:08.818Z,9.73
2019-05-23T05:50:38.605Z,9.79
2019-05-23T05:53:09.379Z,9.87
2019-05-23T05:55:38.508Z,9.95
2019-05-23T05:58:07.627Z,10.00
2019-05-23T06:00:59.081Z,10.09
2019-05-23T06:03:28.431Z,10.17
2019-05-23T06:06:13.767Z,10.24
2019-05-23T06:08:44.133Z,10.33
2019-05-23T06:11:14.149Z,10.41
2019-05-23T06:13:43.805Z,10.47
2019-05-23T06:16:13.309Z,10.53
2019-05-23T06:18:42.566Z,10.61
2019-05-23T06:21:14.154Z,10.65
2019-05-23T06:23:43.915Z,10.72
2019-05-23T06:26:13.008Z,10.78
2019-05-23T06:28:43.542Z,10.84
2019-05-23T06:31:13.811Z,10.90
2019-05-23T06:33:43.288Z,10.97
2019-05-23T06:36:13.374Z,11.01
2019-05-23T06:38:42.598Z,11.07
2019-05-23T06:41:12.067Z,11.16
2019-05-23T06:43:41.129Z,11.25
2019-05-23T06:46:10.696Z,11.32
2019-05-23T06:48:39.792Z,11.40
2019-05-23T06:51:08.997Z,11.50
2019-05-23T06:53:38.067Z,11.58
2019-05-23T06:56:09.626Z,11.67
2019-05-23T06:58:39.105Z,11.76
2019-05-23T07:01:08.217Z,11.86
2019-05-23T07:03:42.679Z,11.94
2019-05-23T07:06:09.436Z,12.04
2019-05-23T07:08:38.560Z,12.13
2019-05-23T07:11:07.668Z,12.22
2019-05-23T07:13:36.905Z,12.31
2019-05-23T07:16:06.334Z,12.41
2019-05-23T07:18:35.602Z,12.48
2019-05-23T07:21:04.905Z,12.56
2019-05-23T07:23:34.039Z,12.67
2019-05-23T07:26:03.105Z,12.75
2019-05-23T07:28:32.170Z,12.85
2019-05-23T07:31:01.267Z,12.94
2019-05-23T07:33:30.323Z,13.03
2019-05-23T07:35:59.459Z,13.10
2019-05-23T07:38:28.631Z,13.21
2019-05-23T07:40:58.197Z,13.29
2019-05-23T07:43:27.685Z,13.37
2019-05-23T07:45:57.876Z,13.42
2019-05-23T07:48:27.281Z,13.47
2019-05-23T07:50:56.442Z,13.51
2019-05-23T07:53:44.447Z,13.56
2019-05-23T07:56:15.162Z,13.62
2019-05-23T07:58:44.234Z,13.63
2019-05-23T08:01:15.403Z,13.69
2019-05-23T08:03:46.461Z,13.76
2019-05-23T08:06:15.636Z,13.84
2019-05-23T08:08:44.829Z,13.93
2019-05-23T08:11:13.939Z,14.03
2019-05-23T08:13:43.417Z,14.10
2019-05-23T08:16:12.973Z,14.14
2019-05-23T08:18:42.448Z,14.16
2019-05-23T08:21:11.610Z,14.17
2019-05-23T08:23:40.703Z,14.24
2019-05-23T08:26:10.944Z,14.26
2019-05-23T08:28:56.707Z,14.32
2019-05-23T08:31:11.031Z,14.40
2019-05-23T08:33:40.204Z,14.44
2019-05-23T08:36:10.090Z,14.48
2019-05-23T08:38:39.856Z,14.51
2019-05-23T08:41:08.922Z,14.58
2019-05-23T08:43:38.003Z,14.58
2019-05-23T08:46:07.870Z,14.60
2019-05-23T08:48:37.267Z,14.66
2019-05-23T08:51:06.414Z,14.74
2019-05-23T08:53:35.612Z,14.80
2019-05-23T08:56:17.398Z,14.85
2019-05-23T08:58:35.811Z,14.91
2019-05-23T09:01:04.904Z,14.98
2019-05-23T09:03:34.112Z,15.01
2019-05-23T09:06:03.267Z,15.07
2019-05-23T09:08:32.534Z,15.14
2019-05-23T09:11:01.600Z,15.22
2019-05-23T09:13:31.064Z,15.32
2019-05-23T09:16:00.139Z,15.42
2019-05-23T09:18:29.339Z,15.54
2019-05-23T09:20:58.574Z,15.60
2019-05-23T09:23:27.781Z,15.67
2019-05-23T09:25:56.914Z,15.76
2019-05-23T09:28:26.011Z,15.83
2019-05-23T09:30:55.756Z,15.90
2019-05-23T09:33:25.021Z,15.99
2019-05-23T09:35:54.477Z,16.13
2019-05-23T09:38:23.936Z,16.25
2019-05-23T09:40:53.009Z,16.32
2019-05-23T09:43:22.019Z,16.38
2019-05-23T09:45:51.085Z,16.45
2019-05-23T09:48:20.120Z,16.55
2019-05-23T09:50:49.270Z,16.68
2019-05-23T09:53:18.436Z,16.83
2019-05-23T09:55:47.868Z,16.96
2019-05-23T09:58:17.007Z,17.09
2019-05-23T10:00:46.103Z,17.08
2019-05-23T10:03:15.853Z,17.12
2019-05-23T10:05:44.939Z,17.14
2019-05-23T10:08:14.005Z,17.25
2019-05-23T10:10:43.354Z,17.36
2019-05-23T10:13:12.894Z,17.48
2019-05-23T10:15:53.930Z,17.56
2019-05-23T10:18:23.063Z,17.68
2019-05-23T10:20:52.138Z,17.88
2019-05-23T10:23:21.199Z,17.96
2019-05-23T10:25:50.306Z,18.01
2019-05-23T10:28:19.389Z,18.12
2019-05-23T10:30:48.474Z,18.17
2019-05-23T10:33:17.550Z,18.21
2019-05-23T10:35:59.649Z,18.29
2019-05-23T10:38:17.533Z,18.36
2019-05-23T10:40:47.018Z,18.42
2019-05-23T10:43:16.285Z,18.49
2019-05-23T10:45:45.730Z,18.64
2019-05-23T10:48:15.490Z,18.83
2019-05-23T10:50:45.529Z,18.97
2019-05-23T10:53:14.874Z,19.03
2019-05-23T10:55:43.988Z,19.16
2019-05-23T10:58:13.233Z,19.25
2019-05-23T11:00:44.350Z,19.31
2019-05-23T11:03:14.061Z,19.46
2019-05-23T11:05:43.548Z,19.58
2019-05-23T11:08:12.885Z,19.70
2019-05-23T11:10:42.594Z,19.82
2019-05-23T11:13:11.651Z,20.01
2019-05-23T11:15:40.734Z,20.19
2019-05-23T11:18:11.026Z,20.39
2019-05-23T11:20:40.555Z,20.50
2019-05-23T11:23:10.397Z,20.69
2019-05-23T11:25:40.181Z,20.93
2019-05-23T11:28:09.388Z,21.11
2019-05-23T11:30:46.873Z,21.34
2019-05-23T11:33:16.089Z,21.54
2019-05-23T11:35:46.106Z,21.75
2019-05-23T11:38:15.489Z,22.00
2019-05-23T11:40:44.747Z,22.26
2019-05-23T11:43:13.836Z,22.52
2019-05-23T11:46:00.489Z,22.75
2019-05-23T11:48:29.531Z,22.92
2019-05-23T11:50:58.626Z,22.98
2019-05-23T11:53:28.633Z,23.11
2019-05-23T11:55:57.768Z,23.22
2019-05-23T11:58:26.815Z,23.36
2019-05-23T12:01:23.419Z,23.48
2019-05-23T12:03:58.642Z,23.74
2019-05-23T12:06:30.318Z,24.12
2019-05-23T12:08:59.511Z,24.34
2019-05-23T12:11:29.349Z,24.64
2019-05-23T12:13:58.418Z,24.88
2019-05-23T12:16:28.058Z,25.42
2019-05-23T12:18:57.140Z,25.42
2019-05-23T12:21:26.444Z,25.66
2019-05-23T12:23:55.497Z,25.87
2019-05-23T12:26:25.000Z,25.93
2019-05-23T12:28:53.986Z,25.88
2019-05-23T12:31:23.601Z,25.88
2019-05-23T12:33:52.692Z,25.92
2019-05-23T12:36:21.820Z,25.94
2019-05-23T12:38:51.068Z,25.97
2019-05-23T12:41:20.179Z,25.96
2019-05-23T12:43:49.248Z,25.94
2019-05-23T12:46:18.450Z,26.01
2019-05-23T12:48:56.731Z,26.02
2019-05-23T12:51:28.551Z,26.08
2019-05-23T12:53:57.638Z,26.11
2019-05-23T12:56:27.394Z,26.08
2019-05-23T12:58:57.331Z,26.16
2019-05-23T13:01:27.922Z,26.19
2019-05-23T13:03:57.546Z,26.25
2019-05-23T13:06:26.804Z,26.35
2019-05-23T13:08:55.872Z,26.24
2019-05-23T13:11:25.156Z,26.35
2019-05-23T13:13:54.212Z,26.50
2019-05-23T13:16:23.361Z,26.70
2019-05-23T13:18:52.422Z,26.86
2019-05-23T13:21:21.682Z,27.12
2019-05-23T13:23:50.759Z,27.39
2019-05-23T13:26:20.001Z,27.48
2019-05-23T13:28:49.064Z,27.66
2019-05-23T13:31:18.266Z,27.74
2019-05-23T13:33:47.411Z,27.82
2019-05-23T13:36:16.575Z,27.89
2019-05-23T13:38:45.829Z,28.03
2019-05-23T13:41:15.290Z,28.09
2019-05-23T13:43:44.456Z,28.27
2019-05-23T13:46:13.532Z,28.43
2019-05-23T13:48:42.682Z,28.60
2019-05-23T13:51:11.719Z,28.73
2019-05-23T13:53:40.914Z,28.86
2019-05-23T13:56:10.164Z,28.93
2019-05-23T13:58:39.553Z,29.03
2019-05-23T14:01:09.796Z,28.95
2019-05-23T14:03:39.228Z,28.91
2019-05-23T14:06:08.518Z,28.89
2019-05-23T14:08:37.630Z,28.98
2019-05-23T14:11:07.121Z,29.06
2019-05-23T14:13:36.296Z,29.02
2019-05-23T14:16:05.677Z,28.93
2019-05-23T14:18:36.013Z,28.93
2019-05-23T14:21:05.535Z,28.93
2019-05-23T14:23:34.615Z,28.95
2019-05-23T14:26:04.695Z,28.93
2019-05-23T14:28:33.786Z,28.89
2019-05-23T14:31:14.864Z,28.83
2019-05-23T14:34:01.527Z,28.84
2019-05-23T14:36:39.086Z,28.81
2019-05-23T14:39:13.795Z,28.86
2019-05-23T14:41:50.825Z,28.89
2019-05-23T14:44:19.954Z,28.83
2019-05-23T14:47:03.331Z,28.63
2019-05-23T14:49:37.057Z,28.48
2019-05-23T14:52:18.038Z,28.36
2019-05-23T14:54:50.656Z,28.26
2019-05-23T14:57:19.794Z,28.12
2019-05-23T14:59:48.877Z,28.02
2019-05-23T15:02:20.760Z,27.98
2019-05-23T15:04:49.848Z,27.94
2019-05-23T15:07:19.104Z,27.93
2019-05-23T15:09:48.203Z,27.84
2019-05-23T15:12:17.278Z,27.74
2019-05-23T15:14:46.427Z,27.59
2019-05-23T15:17:15.555Z,27.47
2019-05-23T15:19:45.467Z,27.37
2019-05-23T15:22:14.695Z,27.32
2019-05-23T15:24:43.732Z,27.24
2019-05-23T15:27:12.791Z,27.10
2019-05-23T15:29:41.972Z,27.00
2019-05-23T15:32:11.010Z,26.80
2019-05-23T15:34:40.088Z,26.70
2019-05-23T15:37:09.153Z,26.56
2019-05-23T15:39:38.810Z,26.44
2019-05-23T15:42:07.875Z,26.32
2019-05-23T15:44:37.005Z,26.23
2019-05-23T15:47:06.131Z,26.14
2019-05-23T15:49:37.325Z,26.08
2019-05-23T15:52:31.407Z,26.00
2019-05-23T15:55:04.706Z,25.93
2019-05-23T15:57:58.658Z,25.78
2019-05-23T16:00:45.623Z,25.64
2019-05-23T16:03:21.875Z,25.45
2019-05-23T16:05:51.270Z,25.13
2019-05-23T16:08:20.310Z,25.13
2019-05-23T16:10:49.474Z,24.93
2019-05-23T16:13:18.623Z,24.95
2019-05-23T16:15:47.721Z,24.78
2019-05-23T16:18:16.793Z,24.65
2019-05-23T16:20:45.886Z,24.54
2019-05-23T16:23:14.945Z,24.47
2019-05-23T16:25:44.045Z,24.36
2019-05-23T16:28:13.144Z,24.23
2019-05-23T16:30:42.227Z,24.15
2019-05-23T16:33:11.402Z,24.04
2019-05-23T16:35:40.647Z,23.87
2019-05-23T16:38:09.780Z,23.77
2019-05-23T16:40:38.906Z,23.67
2019-05-23T16:43:08.051Z,23.52
2019-05-23T16:45:37.131Z,23.45
2019-05-23T16:48:06.327Z,23.32
2019-05-23T16:50:35.410Z,23.17
2019-05-23T16:53:04.480Z,23.02
2019-05-23T16:55:40.175Z,22.88
2019-05-23T16:58:26.393Z,22.81
2019-05-23T17:01:09.126Z,22.73
2019-05-23T17:03:57.977Z,22.63
2019-05-23T17:06:55.439Z,22.54
2019-05-23T17:10:06.113Z,22.41
2019-05-23T17:12:34.772Z,22.30
2019-05-23T17:15:18.927Z,22.18
2019-05-23T17:18:02.953Z,22.07
2019-05-23T17:20:40.469Z,21.94
2019-05-23T17:23:15.882Z,21.83
2019-05-23T17:26:01.546Z,21.78
2019-05-23T17:28:35.260Z,21.72
2019-05-23T17:31:07.065Z,21.64
2019-05-23T17:33:37.228Z,21.58
2019-05-23T17:36:06.677Z,21.54
2019-05-23T17:38:35.862Z,21.47
2019-05-23T17:41:05.403Z,21.42
2019-05-23T17:43:34.593Z,21.37
2019-05-23T17:46:03.643Z,21.30
2019-05-23T17:48:32.758Z,21.25
2019-05-23T17:51:01.909Z,21.19
2019-05-23T17:53:31.004Z,21.15
2019-05-23T17:56:00.080Z,21.09
2019-05-23T17:58:29.532Z,21.02
2019-05-23T18:00:59.030Z,20.98
2019-05-23T18:03:29.630Z,20.94
2019-05-23T18:05:58.780Z,20.87
2019-05-23T18:08:28.136Z,20.82
2019-05-23T18:10:57.796Z,20.78
2019-05-23T18:13:26.869Z,20.74
2019-05-23T18:15:55.920Z,20.68
2019-05-23T18:18:25.536Z,20.64
2019-05-23T18:20:55.254Z,20.60
2019-05-23T18:23:24.729Z,20.54
2019-05-23T18:25:53.855Z,20.49
2019-05-23T18:28:23.136Z,20.42
2019-05-23T18:31:00.820Z,20.38
2019-05-23T18:33:29.893Z,20.31
2019-05-23T18:36:00.601Z,20.25
2019-05-23T18:38:30.074Z,20.21
2019-05-23T18:41:05.685Z,20.14
2019-05-23T18:43:31.743Z,20.08
2019-05-23T18:46:03.550Z,20.04
2019-05-23T18:48:32.825Z,19.99
2019-05-23T18:51:02.102Z,19.93
2019-05-23T18:53:32.067Z,19.87
2019-05-23T18:56:01.242Z,19.83
2019-05-23T18:58:30.329Z,19.77
2019-05-23T19:01:11.892Z,19.70
2019-05-23T19:03:41.266Z,19.63
2019-05-23T19:06:10.342Z,19.55
2019-05-23T19:08:39.534Z,19.46
2019-05-23T19:11:20.170Z,19.38
2019-05-23T19:13:39.527Z,19.30
2019-05-23T19:16:08.608Z,19.21
2019-05-23T19:18:38.093Z,19.13
2019-05-23T19:21:08.333Z,19.03
2019-05-23T19:23:37.736Z,18.94
2019-05-23T19:26:06.869Z,18.85
2019-05-23T19:28:36.071Z,18.76
2019-05-23T19:31:06.281Z,18.64
2019-05-23T19:33:35.691Z,18.57
2019-05-23T19:36:06.847Z,18.48
2019-05-23T19:38:35.926Z,18.43
2019-05-23T19:41:05.115Z,18.34
2019-05-23T19:43:34.874Z,18.26
2019-05-23T19:46:03.990Z,18.16
2019-05-23T19:48:33.052Z,18.07
2019-05-23T19:51:02.133Z,17.99
2019-05-23T19:53:31.632Z,17.90
2019-05-23T19:56:01.600Z,17.83
2019-05-23T19:58:30.701Z,17.74
2019-05-23T20:01:00.323Z,17.68
2019-05-23T20:03:32.653Z,17.59
2019-05-23T20:06:00.318Z,17.53
2019-05-23T20:08:29.491Z,17.45
2019-05-23T20:10:58.598Z,17.37
2019-05-23T20:13:27.759Z,17.29
2019-05-23T20:15:56.842Z,17.23
2019-05-23T20:18:26.097Z,17.14
2019-05-23T20:20:55.288Z,17.06
2019-05-23T20:23:24.433Z,16.98
2019-05-23T20:25:53.520Z,16.91
2019-05-23T20:28:23.464Z,16.85
2019-05-23T20:30:57.560Z,16.78
2019-05-23T20:33:26.622Z,16.71
2019-05-23T20:35:56.346Z,16.63
2019-05-23T20:38:26.413Z,16.56
2019-05-23T20:40:56.581Z,16.49
2019-05-23T20:43:26.727Z,16.42
2019-05-23T20:45:55.901Z,16.36
2019-05-23T20:48:25.908Z,16.29
2019-05-23T20:50:55.062Z,16.22
2019-05-23T20:53:24.450Z,16.18
2019-05-23T20:55:53.496Z,16.14
2019-05-23T20:58:22.645Z,16.08
2019-05-23T21:00:59.394Z,16.02
2019-05-23T21:03:28.941Z,15.97
2019-05-23T21:05:58.049Z,15.90
2019-05-23T21:08:27.084Z,15.86
2019-05-23T21:10:56.105Z,15.80
2019-05-23T21:13:25.174Z,15.76
2019-05-23T21:15:54.287Z,15.72
2019-05-23T21:18:23.350Z,15.66
2019-05-23T21:20:52.431Z,15.60
2019-05-23T21:23:21.584Z,15.55
2019-05-23T21:25:58.135Z,15.50
2019-05-23T21:28:27.196Z,15.46
2019-05-23T21:30:56.290Z,15.40
2019-05-23T21:33:25.637Z,15.36
2019-05-23T21:35:54.731Z,15.31
2019-05-23T21:38:23.797Z,15.28
2019-05-23T21:40:52.975Z,15.23
2019-05-23T21:43:22.044Z,15.19
2019-05-23T21:45:51.308Z,15.15
2019-05-23T21:48:20.763Z,15.10
2019-05-23T21:50:49.845Z,15.04
2019-05-23T21:53:19.182Z,15.00
2019-05-23T21:55:49.354Z,14.95
2019-05-23T21:58:18.414Z,14.92
2019-05-23T22:01:24.521Z,14.88
2019-05-23T22:04:17.145Z,14.83
2019-05-23T22:06:50.528Z,14.78
2019-05-23T22:09:19.693Z,14.72
2019-05-23T22:11:49.172Z,14.66
2019-05-23T22:14:18.228Z,14.63
2019-05-23T22:16:47.572Z,14.57
2019-05-23T22:19:19.882Z,14.52
2019-05-23T22:21:49.064Z,14.48
2019-05-23T22:24:18.532Z,14.42
2019-05-23T22:26:47.611Z,14.35
2019-05-23T22:29:16.969Z,14.30
2019-05-23T22:31:46.059Z,14.26
2019-05-23T22:34:43.458Z,14.20
2019-05-23T22:37:17.047Z,14.16
2019-05-23T22:39:46.035Z,14.10
2019-05-23T22:42:15.815Z,14.04
2019-05-23T22:44:44.863Z,13.99
2019-05-23T22:47:13.938Z,13.94
2019-05-23T22:49:43.020Z,13.89
2019-05-23T22:52:12.110Z,13.86
2019-05-23T22:54:41.194Z,13.79
2019-05-23T22:57:10.277Z,13.74
2019-05-23T22:59:39.344Z,13.69
2019-05-23T23:02:12.648Z,13.64
2019-05-23T23:04:42.015Z,13.60
2019-05-23T23:07:11.374Z,13.56
2019-05-23T23:09:40.446Z,13.52
2019-05-23T23:12:09.522Z,13.49
2019-05-23T23:14:38.580Z,13.44
2019-05-23T23:17:07.680Z,13.39
2019-05-23T23:19:36.735Z,13.36
2019-05-23T23:22:06.775Z,13.33
2019-05-23T23:24:35.830Z,13.28
2019-05-23T23:27:04.911Z,13.25
2019-05-23T23:29:33.965Z,13.20
2019-05-23T23:32:04.056Z,13.16
2019-05-23T23:34:33.381Z,13.12
2019-05-23T23:37:02.464Z,13.05
2019-05-23T23:39:31.526Z,12.99
2019-05-23T23:42:00.610Z,12.93
2019-05-23T23:44:34.508Z,12.87
2019-05-23T23:47:22.842Z,12.83
2019-05-23T23:50:09.719Z,12.79
2019-05-23T23:52:56.736Z,12.73
2019-05-23T23:55:43.779Z,12.69
2019-05-23T23:58:11.882Z,12.65
